sensor_id;sensor_type;location;lat;lon;timestamp;P1;durP1;ratioP1;P2;durP2;ratioP2
48635;SDS011;34429;52.332;5.614;2022-11-11T00:02:07;17.48;;;7.47;;
48635;SDS011;34429;52.332;5.614;2022-11-11T00:04:38;14.77;;;8.02;;
48635;SDS011;34429;52.332;5.614;2022-11-11T00:07:06;18.33;;;8.73;;
48635;SDS011;34429;52.332;5.614;2022-11-11T00:09:34;13.73;;;9.05;;
48635;SDS011;34429;52.332;5.614;2022-11-11T00:12:03;20.98;;;9.20;;
48635;SDS011;34429;52.332;5.614;2022-11-11T00:14:31;24.42;;;9.63;;
48635;SDS011;34429;52.332;5.614;2022-11-11T00:17:00;18.23;;;8.85;;
48635;SDS011;34429;52.332;5.614;2022-11-11T00:19:43;19.08;;;9.90;;
48635;SDS011;34429;52.332;5.614;2022-11-11T00:22:24;20.50;;;10.02;;
48635;SDS011;34429;52.332;5.614;2022-11-11T00:25:05;23.25;;;9.43;;
48635;SDS011;34429;52.332;5.614;2022-11-11T00:27:34;20.38;;;10.68;;
48635;SDS011;34429;52.332;5.614;2022-11-11T00:30:03;19.73;;;9.38;;
48635;SDS011;34429;52.332;5.614;2022-11-11T00:32:32;24.02;;;9.85;;
48635;SDS011;34429;52.332;5.614;2022-11-11T00:35:03;19.25;;;10.25;;
48635;SDS011;34429;52.332;5.614;2022-11-11T00:37:45;22.45;;;10.18;;
48635;SDS011;34429;52.332;5.614;2022-11-11T00:40:15;22.05;;;10.18;;
48635;SDS011;34429;52.332;5.614;2022-11-11T00:42:44;22.88;;;10.85;;
48635;SDS011;34429;52.332;5.614;2022-11-11T00:45:12;21.45;;;12.35;;
48635;SDS011;34429;52.332;5.614;2022-11-11T00:47:40;22.13;;;12.50;;
48635;SDS011;34429;52.332;5.614;2022-11-11T00:50:24;22.42;;;11.50;;
48635;SDS011;34429;52.332;5.614;2022-11-11T00:53:08;27.23;;;13.02;;
48635;SDS011;34429;52.332;5.614;2022-11-11T00:55:37;30.50;;;13.85;;
48635;SDS011;34429;52.332;5.614;2022-11-11T00:58:06;28.48;;;13.98;;
48635;SDS011;34429;52.332;5.614;2022-11-11T01:00:34;26.05;;;13.70;;
48635;SDS011;34429;52.332;5.614;2022-11-11T01:03:03;24.45;;;13.80;;
48635;SDS011;34429;52.332;5.614;2022-11-11T01:05:34;25.90;;;13.00;;
48635;SDS011;34429;52.332;5.614;2022-11-11T01:08:04;27.73;;;14.73;;
48635;SDS011;34429;52.332;5.614;2022-11-11T01:10:33;26.92;;;15.63;;
48635;SDS011;34429;52.332;5.614;2022-11-11T01:13:16;27.55;;;14.10;;
48635;SDS011;34429;52.332;5.614;2022-11-11T01:15:47;28.38;;;14.63;;
48635;SDS011;34429;52.332;5.614;2022-11-11T01:18:17;24.95;;;14.15;;
48635;SDS011;34429;52.332;5.614;2022-11-11T01:20:52;26.40;;;15.05;;
48635;SDS011;34429;52.332;5.614;2022-11-11T01:23:25;31.40;;;15.18;;
48635;SDS011;34429;52.332;5.614;2022-11-11T01:25:54;25.52;;;14.75;;
48635;SDS011;34429;52.332;5.614;2022-11-11T01:28:27;26.85;;;15.68;;
48635;SDS011;34429;52.332;5.614;2022-11-11T01:30:59;25.58;;;15.70;;
48635;SDS011;34429;52.332;5.614;2022-11-11T01:33:28;28.65;;;14.95;;
48635;SDS011;34429;52.332;5.614;2022-11-11T01:36:03;26.73;;;14.25;;
48635;SDS011;34429;52.332;5.614;2022-11-11T01:38:34;26.17;;;15.50;;
48635;SDS011;34429;52.332;5.614;2022-11-11T01:41:03;29.50;;;16.33;;
48635;SDS011;34429;52.332;5.614;2022-11-11T01:43:45;31.70;;;14.75;;
48635;SDS011;34429;52.332;5.614;2022-11-11T01:46:15;26.17;;;15.90;;
48635;SDS011;34429;52.332;5.614;2022-11-11T01:48:58;27.02;;;15.45;;
48635;SDS011;34429;52.332;5.614;2022-11-11T01:54:20;29.92;;;15.70;;
48635;SDS011;34429;52.332;5.614;2022-11-11T01:56:55;27.25;;;15.80;;
48635;SDS011;34429;52.332;5.614;2022-11-11T01:59:28;33.75;;;16.60;;
48635;SDS011;34429;52.332;5.614;2022-11-11T02:01:58;33.03;;;17.23;;
48635;SDS011;34429;52.332;5.614;2022-11-11T02:04:32;28.00;;;16.20;;
48635;SDS011;34429;52.332;5.614;2022-11-11T02:07:18;32.45;;;19.05;;
48635;SDS011;34429;52.332;5.614;2022-11-11T02:09:46;34.85;;;17.27;;
48635;SDS011;34429;52.332;5.614;2022-11-11T02:14:57;30.83;;;17.35;;
48635;SDS011;34429;52.332;5.614;2022-11-11T02:17:28;29.15;;;16.95;;
48635;SDS011;34429;52.332;5.614;2022-11-11T02:19:59;33.22;;;17.52;;
48635;SDS011;34429;52.332;5.614;2022-11-11T02:22:35;32.75;;;17.40;;
48635;SDS011;34429;52.332;5.614;2022-11-11T02:25:12;32.47;;;17.63;;
48635;SDS011;34429;52.332;5.614;2022-11-11T02:27:44;29.65;;;17.42;;
48635;SDS011;34429;52.332;5.614;2022-11-11T02:30:16;30.73;;;17.80;;
48635;SDS011;34429;52.332;5.614;2022-11-11T02:32:46;30.80;;;17.30;;
48635;SDS011;34429;52.332;5.614;2022-11-11T02:35:17;32.53;;;18.23;;
48635;SDS011;34429;52.332;5.614;2022-11-11T02:37:47;34.72;;;18.00;;
48635;SDS011;34429;52.332;5.614;2022-11-11T02:40:22;33.00;;;17.60;;
48635;SDS011;34429;52.332;5.614;2022-11-11T02:42:55;36.70;;;17.48;;
48635;SDS011;34429;52.332;5.614;2022-11-11T02:45:23;40.47;;;18.90;;
48635;SDS011;34429;52.332;5.614;2022-11-11T02:47:52;34.80;;;18.65;;
48635;SDS011;34429;52.332;5.614;2022-11-11T02:50:20;40.88;;;19.25;;
48635;SDS011;34429;52.332;5.614;2022-11-11T02:52:48;36.35;;;18.42;;
48635;SDS011;34429;52.332;5.614;2022-11-11T02:55:17;34.70;;;19.53;;
48635;SDS011;34429;52.332;5.614;2022-11-11T02:57:48;35.88;;;17.85;;
48635;SDS011;34429;52.332;5.614;2022-11-11T03:00:17;36.42;;;20.15;;
48635;SDS011;34429;52.332;5.614;2022-11-11T03:02:45;37.28;;;18.55;;
48635;SDS011;34429;52.332;5.614;2022-11-11T03:05:13;34.92;;;18.83;;
48635;SDS011;34429;52.332;5.614;2022-11-11T03:07:42;34.53;;;17.13;;
48635;SDS011;34429;52.332;5.614;2022-11-11T03:10:10;33.88;;;19.02;;
48635;SDS011;34429;52.332;5.614;2022-11-11T03:12:38;39.28;;;18.25;;
48635;SDS011;34429;52.332;5.614;2022-11-11T03:15:09;33.58;;;18.85;;
48635;SDS011;34429;52.332;5.614;2022-11-11T03:17:38;33.53;;;18.77;;
48635;SDS011;34429;52.332;5.614;2022-11-11T03:20:04;37.90;;;19.48;;
48635;SDS011;34429;52.332;5.614;2022-11-11T03:22:57;31.95;;;17.50;;
48635;SDS011;34429;52.332;5.614;2022-11-11T03:25:26;34.97;;;17.48;;
48635;SDS011;34429;52.332;5.614;2022-11-11T03:28:07;37.97;;;16.90;;
48635;SDS011;34429;52.332;5.614;2022-11-11T03:30:41;34.88;;;18.83;;
48635;SDS011;34429;52.332;5.614;2022-11-11T03:33:11;35.50;;;18.65;;
48635;SDS011;34429;52.332;5.614;2022-11-11T03:35:39;34.08;;;17.17;;
48635;SDS011;34429;52.332;5.614;2022-11-11T03:38:10;36.63;;;18.92;;
48635;SDS011;34429;52.332;5.614;2022-11-11T03:40:40;38.53;;;18.02;;
48635;SDS011;34429;52.332;5.614;2022-11-11T03:43:09;35.28;;;18.75;;
48635;SDS011;34429;52.332;5.614;2022-11-11T03:45:40;37.45;;;19.42;;
48635;SDS011;34429;52.332;5.614;2022-11-11T03:48:09;35.58;;;17.65;;
48635;SDS011;34429;52.332;5.614;2022-11-11T03:50:38;35.63;;;18.38;;
48635;SDS011;34429;52.332;5.614;2022-11-11T03:53:06;37.97;;;18.33;;
48635;SDS011;34429;52.332;5.614;2022-11-11T03:55:35;38.50;;;18.98;;
48635;SDS011;34429;52.332;5.614;2022-11-11T03:58:03;35.22;;;18.30;;
48635;SDS011;34429;52.332;5.614;2022-11-11T04:00:32;39.87;;;18.90;;
48635;SDS011;34429;52.332;5.614;2022-11-11T04:03:04;37.95;;;19.33;;
48635;SDS011;34429;52.332;5.614;2022-11-11T04:05:46;39.83;;;18.40;;
48635;SDS011;34429;52.332;5.614;2022-11-11T04:08:27;38.15;;;19.80;;
48635;SDS011;34429;52.332;5.614;2022-11-11T04:11:08;37.40;;;19.52;;
48635;SDS011;34429;52.332;5.614;2022-11-11T04:13:40;38.05;;;19.95;;
48635;SDS011;34429;52.332;5.614;2022-11-11T04:16:23;37.10;;;19.17;;
48635;SDS011;34429;52.332;5.614;2022-11-11T04:18:54;41.38;;;19.92;;
48635;SDS011;34429;52.332;5.614;2022-11-11T04:21:40;38.97;;;18.05;;
48635;SDS011;34429;52.332;5.614;2022-11-11T04:24:12;43.67;;;19.98;;
48635;SDS011;34429;52.332;5.614;2022-11-11T04:26:55;38.38;;;19.75;;
48635;SDS011;34429;52.332;5.614;2022-11-11T04:29:24;39.47;;;18.48;;
48635;SDS011;34429;52.332;5.614;2022-11-11T04:31:53;36.25;;;19.00;;
48635;SDS011;34429;52.332;5.614;2022-11-11T04:34:37;37.00;;;18.60;;
48635;SDS011;34429;52.332;5.614;2022-11-11T04:37:06;44.35;;;18.70;;
48635;SDS011;34429;52.332;5.614;2022-11-11T04:39:35;38.45;;;19.05;;
48635;SDS011;34429;52.332;5.614;2022-11-11T04:42:15;32.17;;;17.17;;
48635;SDS011;34429;52.332;5.614;2022-11-11T04:44:44;34.65;;;17.17;;
48635;SDS011;34429;52.332;5.614;2022-11-11T04:47:24;33.65;;;17.27;;
48635;SDS011;34429;52.332;5.614;2022-11-11T04:49:55;37.30;;;17.42;;
48635;SDS011;34429;52.332;5.614;2022-11-11T04:52:24;35.85;;;17.17;;
48635;SDS011;34429;52.332;5.614;2022-11-11T04:54:55;39.17;;;16.60;;
48635;SDS011;34429;52.332;5.614;2022-11-11T04:57:38;37.72;;;16.83;;
48635;SDS011;34429;52.332;5.614;2022-11-11T05:00:09;36.30;;;17.13;;
48635;SDS011;34429;52.332;5.614;2022-11-11T05:02:39;32.85;;;17.20;;
48635;SDS011;34429;52.332;5.614;2022-11-11T05:05:23;36.38;;;15.55;;
48635;SDS011;34429;52.332;5.614;2022-11-11T05:07:52;33.35;;;16.27;;
48635;SDS011;34429;52.332;5.614;2022-11-11T05:10:33;34.95;;;16.00;;
48635;SDS011;34429;52.332;5.614;2022-11-11T05:13:02;31.98;;;16.15;;
48635;SDS011;34429;52.332;5.614;2022-11-11T05:15:44;30.15;;;16.58;;
48635;SDS011;34429;52.332;5.614;2022-11-11T05:18:25;30.83;;;15.73;;
48635;SDS011;34429;52.332;5.614;2022-11-11T05:21:10;31.65;;;16.55;;
48635;SDS011;34429;52.332;5.614;2022-11-11T05:23:50;32.30;;;15.80;;
48635;SDS011;34429;52.332;5.614;2022-11-11T05:26:31;31.63;;;15.65;;
48635;SDS011;34429;52.332;5.614;2022-11-11T05:29:00;31.97;;;14.67;;
48635;SDS011;34429;52.332;5.614;2022-11-11T05:31:29;32.17;;;15.37;;
48635;SDS011;34429;52.332;5.614;2022-11-11T05:33:57;27.88;;;15.45;;
48635;SDS011;34429;52.332;5.614;2022-11-11T05:36:28;34.75;;;15.02;;
48635;SDS011;34429;52.332;5.614;2022-11-11T05:38:56;34.25;;;16.27;;
48635;SDS011;34429;52.332;5.614;2022-11-11T05:41:25;28.90;;;14.65;;
48635;SDS011;34429;52.332;5.614;2022-11-11T05:43:53;26.98;;;15.18;;
48635;SDS011;34429;52.332;5.614;2022-11-11T05:46:21;30.08;;;17.05;;
48635;SDS011;34429;52.332;5.614;2022-11-11T05:48:50;32.17;;;15.27;;
48635;SDS011;34429;52.332;5.614;2022-11-11T05:51:39;28.90;;;14.60;;
48635;SDS011;34429;52.332;5.614;2022-11-11T05:54:07;33.28;;;16.75;;
48635;SDS011;34429;52.332;5.614;2022-11-11T05:56:36;27.75;;;14.77;;
48635;SDS011;34429;52.332;5.614;2022-11-11T05:59:04;29.92;;;14.35;;
48635;SDS011;34429;52.332;5.614;2022-11-11T06:01:33;30.52;;;15.43;;
48635;SDS011;34429;52.332;5.614;2022-11-11T06:04:02;31.23;;;13.82;;
48635;SDS011;34429;52.332;5.614;2022-11-11T06:09:03;25.58;;;15.18;;
48635;SDS011;34429;52.332;5.614;2022-11-11T06:11:31;30.88;;;14.75;;
48635;SDS011;34429;52.332;5.614;2022-11-11T06:14:00;31.73;;;16.47;;
48635;SDS011;34429;52.332;5.614;2022-11-11T06:16:28;29.92;;;14.45;;
48635;SDS011;34429;52.332;5.614;2022-11-11T06:18:56;29.17;;;15.60;;
48635;SDS011;34429;52.332;5.614;2022-11-11T06:21:25;29.30;;;15.43;;
48635;SDS011;34429;52.332;5.614;2022-11-11T06:23:54;26.73;;;15.85;;
48635;SDS011;34429;52.332;5.614;2022-11-11T06:26:25;25.13;;;13.77;;
48635;SDS011;34429;52.332;5.614;2022-11-11T06:28:51;30.30;;;15.18;;
48635;SDS011;34429;52.332;5.614;2022-11-11T06:31:22;28.17;;;15.25;;
48635;SDS011;34429;52.332;5.614;2022-11-11T06:33:51;29.88;;;14.48;;
48635;SDS011;34429;52.332;5.614;2022-11-11T06:36:20;35.70;;;14.77;;
48635;SDS011;34429;52.332;5.614;2022-11-11T06:38:49;32.15;;;15.45;;
48635;SDS011;34429;52.332;5.614;2022-11-11T06:41:17;29.15;;;14.30;;
48635;SDS011;34429;52.332;5.614;2022-11-11T06:43:50;26.98;;;15.05;;
48635;SDS011;34429;52.332;5.614;2022-11-11T06:46:19;31.80;;;14.63;;
48635;SDS011;34429;52.332;5.614;2022-11-11T06:48:50;28.83;;;14.88;;
48635;SDS011;34429;52.332;5.614;2022-11-11T06:51:18;29.50;;;15.30;;
48635;SDS011;34429;52.332;5.614;2022-11-11T06:53:47;28.27;;;14.40;;
48635;SDS011;34429;52.332;5.614;2022-11-11T06:56:15;27.92;;;14.75;;
48635;SDS011;34429;52.332;5.614;2022-11-11T06:58:43;28.73;;;14.30;;
48635;SDS011;34429;52.332;5.614;2022-11-11T07:01:14;30.40;;;14.23;;
48635;SDS011;34429;52.332;5.614;2022-11-11T07:03:43;28.80;;;15.38;;
48635;SDS011;34429;52.332;5.614;2022-11-11T07:06:11;26.50;;;15.10;;
48635;SDS011;34429;52.332;5.614;2022-11-11T07:08:39;26.35;;;14.40;;
48635;SDS011;34429;52.332;5.614;2022-11-11T07:11:08;29.13;;;13.98;;
48635;SDS011;34429;52.332;5.614;2022-11-11T07:16:09;25.63;;;13.50;;
48635;SDS011;34429;52.332;5.614;2022-11-11T07:18:40;27.48;;;14.13;;
48635;SDS011;34429;52.332;5.614;2022-11-11T07:21:08;27.45;;;13.88;;
48635;SDS011;34429;52.332;5.614;2022-11-11T07:23:37;27.23;;;14.48;;
48635;SDS011;34429;52.332;5.614;2022-11-11T07:26:05;32.17;;;14.80;;
48635;SDS011;34429;52.332;5.614;2022-11-11T07:28:33;28.98;;;15.02;;
48635;SDS011;34429;52.332;5.614;2022-11-11T07:31:01;28.40;;;14.35;;
48635;SDS011;34429;52.332;5.614;2022-11-11T07:33:30;28.83;;;14.82;;
48635;SDS011;34429;52.332;5.614;2022-11-11T07:36:01;25.15;;;13.77;;
48635;SDS011;34429;52.332;5.614;2022-11-11T07:38:29;27.10;;;13.50;;
48635;SDS011;34429;52.332;5.614;2022-11-11T07:40:57;29.08;;;13.90;;
48635;SDS011;34429;52.332;5.614;2022-11-11T07:43:25;29.10;;;14.27;;
48635;SDS011;34429;52.332;5.614;2022-11-11T07:45:54;30.48;;;15.23;;
48635;SDS011;34429;52.332;5.614;2022-11-11T07:48:22;30.50;;;14.07;;
48635;SDS011;34429;52.332;5.614;2022-11-11T07:50:50;28.05;;;13.73;;
48635;SDS011;34429;52.332;5.614;2022-11-11T07:53:22;26.73;;;14.07;;
48635;SDS011;34429;52.332;5.614;2022-11-11T07:55:52;25.63;;;14.50;;
48635;SDS011;34429;52.332;5.614;2022-11-11T07:58:20;26.13;;;13.75;;
48635;SDS011;34429;52.332;5.614;2022-11-11T08:00:49;24.03;;;13.57;;
48635;SDS011;34429;52.332;5.614;2022-11-11T08:03:17;28.95;;;14.75;;
48635;SDS011;34429;52.332;5.614;2022-11-11T08:05:45;25.77;;;14.57;;
48635;SDS011;34429;52.332;5.614;2022-11-11T08:08:14;27.95;;;13.82;;
48635;SDS011;34429;52.332;5.614;2022-11-11T08:10:45;26.45;;;13.63;;
48635;SDS011;34429;52.332;5.614;2022-11-11T08:13:13;23.60;;;14.25;;
48635;SDS011;34429;52.332;5.614;2022-11-11T08:15:54;23.73;;;12.10;;
48635;SDS011;34429;52.332;5.614;2022-11-11T08:18:22;26.90;;;13.05;;
48635;SDS011;34429;52.332;5.614;2022-11-11T08:20:51;23.85;;;13.63;;
48635;SDS011;34429;52.332;5.614;2022-11-11T08:23:19;24.05;;;12.75;;
48635;SDS011;34429;52.332;5.614;2022-11-11T08:25:59;23.17;;;12.15;;
48635;SDS011;34429;52.332;5.614;2022-11-11T08:28:28;20.35;;;11.68;;
48635;SDS011;34429;52.332;5.614;2022-11-11T08:30:59;22.52;;;12.13;;
48635;SDS011;34429;52.332;5.614;2022-11-11T08:33:29;24.67;;;12.80;;
48635;SDS011;34429;52.332;5.614;2022-11-11T08:35:58;24.55;;;12.27;;
48635;SDS011;34429;52.332;5.614;2022-11-11T08:38:26;29.58;;;12.55;;
48635;SDS011;34429;52.332;5.614;2022-11-11T08:40:58;21.00;;;11.73;;
48635;SDS011;34429;52.332;5.614;2022-11-11T08:43:29;23.33;;;12.63;;
48635;SDS011;34429;52.332;5.614;2022-11-11T08:45:58;25.35;;;12.25;;
48635;SDS011;34429;52.332;5.614;2022-11-11T08:48:28;22.95;;;11.55;;
48635;SDS011;34429;52.332;5.614;2022-11-11T08:50:56;22.20;;;12.20;;
48635;SDS011;34429;52.332;5.614;2022-11-11T08:53:26;26.33;;;12.23;;
48635;SDS011;34429;52.332;5.614;2022-11-11T08:55:56;23.13;;;12.23;;
48635;SDS011;34429;52.332;5.614;2022-11-11T08:58:30;24.10;;;11.30;;
48635;SDS011;34429;52.332;5.614;2022-11-11T09:00:59;22.38;;;11.70;;
48635;SDS011;34429;52.332;5.614;2022-11-11T09:03:28;24.05;;;12.30;;
48635;SDS011;34429;52.332;5.614;2022-11-11T09:05:57;27.13;;;12.90;;
48635;SDS011;34429;52.332;5.614;2022-11-11T09:08:25;21.88;;;12.18;;
48635;SDS011;34429;52.332;5.614;2022-11-11T09:10:53;19.73;;;10.82;;
48635;SDS011;34429;52.332;5.614;2022-11-11T09:13:24;22.77;;;11.23;;
48635;SDS011;34429;52.332;5.614;2022-11-11T09:15:55;19.87;;;10.70;;
48635;SDS011;34429;52.332;5.614;2022-11-11T09:18:23;18.83;;;10.68;;
48635;SDS011;34429;52.332;5.614;2022-11-11T09:20:52;22.13;;;12.05;;
48635;SDS011;34429;52.332;5.614;2022-11-11T09:23:20;22.05;;;10.65;;
48635;SDS011;34429;52.332;5.614;2022-11-11T09:25:48;19.92;;;11.10;;
48635;SDS011;34429;52.332;5.614;2022-11-11T09:28:17;19.73;;;10.83;;
48635;SDS011;34429;52.332;5.614;2022-11-11T09:30:45;18.65;;;10.98;;
48635;SDS011;34429;52.332;5.614;2022-11-11T09:33:16;18.13;;;9.85;;
48635;SDS011;34429;52.332;5.614;2022-11-11T09:35:44;19.23;;;10.40;;
48635;SDS011;34429;52.332;5.614;2022-11-11T09:38:13;19.15;;;10.05;;
48635;SDS011;34429;52.332;5.614;2022-11-11T09:40:52;20.98;;;10.32;;
48635;SDS011;34429;52.332;5.614;2022-11-11T09:43:31;18.75;;;10.52;;
48635;SDS011;34429;52.332;5.614;2022-11-11T09:46:13;16.52;;;9.57;;
48635;SDS011;34429;52.332;5.614;2022-11-11T09:48:55;19.50;;;9.52;;
48635;SDS011;34429;52.332;5.614;2022-11-11T09:51:37;21.00;;;9.77;;
48635;SDS011;34429;52.332;5.614;2022-11-11T09:54:12;18.23;;;9.95;;
48635;SDS011;34429;52.332;5.614;2022-11-11T09:56:44;16.83;;;9.45;;
48635;SDS011;34429;52.332;5.614;2022-11-11T10:01:45;18.65;;;10.18;;
48635;SDS011;34429;52.332;5.614;2022-11-11T10:04:26;18.30;;;9.50;;
48635;SDS011;34429;52.332;5.614;2022-11-11T10:07:02;22.15;;;10.00;;
48635;SDS011;34429;52.332;5.614;2022-11-11T10:09:39;17.10;;;9.35;;
48635;SDS011;34429;52.332;5.614;2022-11-11T10:12:13;15.70;;;9.05;;
48635;SDS011;34429;52.332;5.614;2022-11-11T10:17:14;16.85;;;9.95;;
48635;SDS011;34429;52.332;5.614;2022-11-11T10:19:59;15.05;;;8.95;;
48635;SDS011;34429;52.332;5.614;2022-11-11T10:22:35;18.33;;;10.38;;
48635;SDS011;34429;52.332;5.614;2022-11-11T10:25:16;16.30;;;9.80;;
48635;SDS011;34429;52.332;5.614;2022-11-11T10:27:48;16.73;;;9.18;;
48635;SDS011;34429;52.332;5.614;2022-11-11T10:30:21;17.10;;;10.10;;
48635;SDS011;34429;52.332;5.614;2022-11-11T10:32:52;16.65;;;10.27;;
48635;SDS011;34429;52.332;5.614;2022-11-11T10:35:27;16.73;;;10.20;;
48635;SDS011;34429;52.332;5.614;2022-11-11T10:38:10;19.75;;;10.30;;
48635;SDS011;34429;52.332;5.614;2022-11-11T10:40:51;18.00;;;10.00;;
48635;SDS011;34429;52.332;5.614;2022-11-11T10:43:22;16.55;;;9.60;;
48635;SDS011;34429;52.332;5.614;2022-11-11T10:45:53;18.70;;;10.45;;
48635;SDS011;34429;52.332;5.614;2022-11-11T10:48:30;17.38;;;10.68;;
48635;SDS011;34429;52.332;5.614;2022-11-11T10:51:12;17.52;;;10.98;;
48635;SDS011;34429;52.332;5.614;2022-11-11T10:53:45;19.15;;;10.23;;
48635;SDS011;34429;52.332;5.614;2022-11-11T10:56:22;19.63;;;11.10;;
48635;SDS011;34429;52.332;5.614;2022-11-11T10:58:56;17.02;;;9.57;;
48635;SDS011;34429;52.332;5.614;2022-11-11T11:01:31;20.10;;;9.40;;
48635;SDS011;34429;52.332;5.614;2022-11-11T11:04:05;19.35;;;11.20;;
48635;SDS011;34429;52.332;5.614;2022-11-11T11:06:41;20.08;;;10.68;;
48635;SDS011;34429;52.332;5.614;2022-11-11T11:09:13;21.90;;;10.60;;
48635;SDS011;34429;52.332;5.614;2022-11-11T11:11:45;19.63;;;10.15;;
48635;SDS011;34429;52.332;5.614;2022-11-11T11:14:19;20.27;;;11.30;;
48635;SDS011;34429;52.332;5.614;2022-11-11T11:16:51;16.25;;;9.88;;
48635;SDS011;34429;52.332;5.614;2022-11-11T11:19:23;17.08;;;10.38;;
48635;SDS011;34429;52.332;5.614;2022-11-11T11:21:56;24.17;;;10.00;;
48635;SDS011;34429;52.332;5.614;2022-11-11T11:24:26;18.30;;;10.73;;
48635;SDS011;34429;52.332;5.614;2022-11-11T11:26:56;19.42;;;10.35;;
48635;SDS011;34429;52.332;5.614;2022-11-11T11:29:27;18.13;;;10.27;;
48635;SDS011;34429;52.332;5.614;2022-11-11T11:32:10;19.02;;;10.40;;
48635;SDS011;34429;52.332;5.614;2022-11-11T11:34:43;16.52;;;10.38;;
48635;SDS011;34429;52.332;5.614;2022-11-11T11:37:19;18.13;;;10.02;;
48635;SDS011;34429;52.332;5.614;2022-11-11T11:39:57;15.95;;;10.20;;
48635;SDS011;34429;52.332;5.614;2022-11-11T11:42:27;16.60;;;9.48;;
48635;SDS011;34429;52.332;5.614;2022-11-11T11:44:58;21.40;;;10.02;;
48635;SDS011;34429;52.332;5.614;2022-11-11T11:47:45;21.60;;;10.75;;
48635;SDS011;34429;52.332;5.614;2022-11-11T11:50:28;20.58;;;10.98;;
48635;SDS011;34429;52.332;5.614;2022-11-11T11:53:10;19.35;;;10.50;;
48635;SDS011;34429;52.332;5.614;2022-11-11T11:56:03;17.45;;;10.30;;
48635;SDS011;34429;52.332;5.614;2022-11-11T11:58:41;18.90;;;10.57;;
48635;SDS011;34429;52.332;5.614;2022-11-11T12:01:25;18.40;;;9.95;;
48635;SDS011;34429;52.332;5.614;2022-11-11T12:04:05;18.42;;;10.45;;
48635;SDS011;34429;52.332;5.614;2022-11-11T12:06:59;16.10;;;10.10;;
48635;SDS011;34429;52.332;5.614;2022-11-11T12:09:40;16.38;;;9.93;;
48635;SDS011;34429;52.332;5.614;2022-11-11T12:12:20;19.73;;;10.23;;
48635;SDS011;34429;52.332;5.614;2022-11-11T12:14:59;16.70;;;9.60;;
48635;SDS011;34429;52.332;5.614;2022-11-11T12:17:41;20.65;;;10.63;;
48635;SDS011;34429;52.332;5.614;2022-11-11T12:20:17;18.10;;;10.95;;
48635;SDS011;34429;52.332;5.614;2022-11-11T12:22:59;16.45;;;10.65;;
48635;SDS011;34429;52.332;5.614;2022-11-11T12:25:47;18.30;;;10.73;;
48635;SDS011;34429;52.332;5.614;2022-11-11T12:28:29;21.95;;;11.45;;
48635;SDS011;34429;52.332;5.614;2022-11-11T12:31:21;16.45;;;10.43;;
48635;SDS011;34429;52.332;5.614;2022-11-11T12:34:03;18.00;;;9.98;;
48635;SDS011;34429;52.332;5.614;2022-11-11T12:36:43;17.83;;;10.27;;
48635;SDS011;34429;52.332;5.614;2022-11-11T12:39:25;15.77;;;10.73;;
48635;SDS011;34429;52.332;5.614;2022-11-11T12:42:09;21.45;;;11.30;;
48635;SDS011;34429;52.332;5.614;2022-11-11T12:44:47;17.25;;;9.88;;
48635;SDS011;34429;52.332;5.614;2022-11-11T12:47:26;19.08;;;11.35;;
48635;SDS011;34429;52.332;5.614;2022-11-11T12:50:03;19.60;;;11.10;;
48635;SDS011;34429;52.332;5.614;2022-11-11T12:52:46;22.30;;;10.65;;
48635;SDS011;34429;52.332;5.614;2022-11-11T12:55:28;19.35;;;10.30;;
48635;SDS011;34429;52.332;5.614;2022-11-11T12:58:10;15.77;;;9.85;;
48635;SDS011;34429;52.332;5.614;2022-11-11T13:03:33;19.25;;;10.60;;
48635;SDS011;34429;52.332;5.614;2022-11-11T13:06:16;22.25;;;10.32;;
48635;SDS011;34429;52.332;5.614;2022-11-11T13:09:01;21.13;;;11.32;;
48635;SDS011;34429;52.332;5.614;2022-11-11T13:11:44;17.02;;;10.38;;
48635;SDS011;34429;52.332;5.614;2022-11-11T13:14:33;16.17;;;9.57;;
48635;SDS011;34429;52.332;5.614;2022-11-11T13:17:14;18.95;;;11.30;;
48635;SDS011;34429;52.332;5.614;2022-11-11T13:19:43;18.83;;;10.90;;
48635;SDS011;34429;52.332;5.614;2022-11-11T13:22:18;15.95;;;9.40;;
48635;SDS011;34429;52.332;5.614;2022-11-11T13:24:49;17.50;;;10.15;;
48635;SDS011;34429;52.332;5.614;2022-11-11T13:27:22;17.00;;;10.40;;
48635;SDS011;34429;52.332;5.614;2022-11-11T13:32:59;15.35;;;9.60;;
48635;SDS011;34429;52.332;5.614;2022-11-11T13:35:33;17.67;;;11.20;;
48635;SDS011;34429;52.332;5.614;2022-11-11T13:38:04;18.45;;;10.68;;
48635;SDS011;34429;52.332;5.614;2022-11-11T13:43:11;19.05;;;10.35;;
48635;SDS011;34429;52.332;5.614;2022-11-11T13:45:51;21.85;;;9.55;;
48635;SDS011;34429;52.332;5.614;2022-11-11T13:48:23;18.25;;;10.48;;
48635;SDS011;34429;52.332;5.614;2022-11-11T13:51:08;17.38;;;10.00;;
48635;SDS011;34429;52.332;5.614;2022-11-11T13:53:40;17.45;;;9.98;;
48635;SDS011;34429;52.332;5.614;2022-11-11T13:56:09;19.30;;;10.07;;
48635;SDS011;34429;52.332;5.614;2022-11-11T13:58:38;17.73;;;9.18;;
48635;SDS011;34429;52.332;5.614;2022-11-11T14:01:16;20.42;;;10.32;;
48635;SDS011;34429;52.332;5.614;2022-11-11T14:03:58;19.05;;;10.90;;
48635;SDS011;34429;52.332;5.614;2022-11-11T14:12:39;20.33;;;10.88;;
48635;SDS011;34429;52.332;5.614;2022-11-11T14:18:09;20.17;;;10.73;;
48635;SDS011;34429;52.332;5.614;2022-11-11T14:20:57;19.15;;;10.50;;
48635;SDS011;34429;52.332;5.614;2022-11-11T14:23:30;21.13;;;10.50;;
48635;SDS011;34429;52.332;5.614;2022-11-11T14:28:51;18.05;;;9.75;;
48635;SDS011;34429;52.332;5.614;2022-11-11T14:31:30;18.20;;;9.70;;
48635;SDS011;34429;52.332;5.614;2022-11-11T14:34:14;14.20;;;8.80;;
48635;SDS011;34429;52.332;5.614;2022-11-11T14:36:51;27.02;;;8.95;;
48635;SDS011;34429;52.332;5.614;2022-11-11T14:39:31;15.27;;;8.23;;
48635;SDS011;34429;52.332;5.614;2022-11-11T14:42:04;15.73;;;9.05;;
48635;SDS011;34429;52.332;5.614;2022-11-11T14:44:52;16.55;;;9.48;;
48635;SDS011;34429;52.332;5.614;2022-11-11T14:47:24;17.73;;;9.25;;
48635;SDS011;34429;52.332;5.614;2022-11-11T14:50:01;14.15;;;7.70;;
48635;SDS011;34429;52.332;5.614;2022-11-11T14:52:34;21.15;;;9.20;;
48635;SDS011;34429;52.332;5.614;2022-11-11T14:55:10;14.93;;;8.35;;
48635;SDS011;34429;52.332;5.614;2022-11-11T14:57:44;15.15;;;7.90;;
48635;SDS011;34429;52.332;5.614;2022-11-11T15:00:15;17.08;;;8.40;;
48635;SDS011;34429;52.332;5.614;2022-11-11T15:02:48;15.13;;;8.73;;
48635;SDS011;34429;52.332;5.614;2022-11-11T15:05:22;16.27;;;8.90;;
48635;SDS011;34429;52.332;5.614;2022-11-11T15:07:58;15.80;;;9.05;;
48635;SDS011;34429;52.332;5.614;2022-11-11T15:10:37;14.20;;;7.75;;
48635;SDS011;34429;52.332;5.614;2022-11-11T15:13:15;15.75;;;8.32;;
48635;SDS011;34429;52.332;5.614;2022-11-11T15:15:57;15.38;;;8.50;;
48635;SDS011;34429;52.332;5.614;2022-11-11T15:18:55;15.07;;;8.63;;
48635;SDS011;34429;52.332;5.614;2022-11-11T15:21:39;16.35;;;8.15;;
48635;SDS011;34429;52.332;5.614;2022-11-11T15:24:18;14.80;;;7.65;;
48635;SDS011;34429;52.332;5.614;2022-11-11T15:26:59;12.48;;;7.75;;
48635;SDS011;34429;52.332;5.614;2022-11-11T15:29:46;16.23;;;8.52;;
48635;SDS011;34429;52.332;5.614;2022-11-11T15:32:22;14.57;;;8.10;;
48635;SDS011;34429;52.332;5.614;2022-11-11T15:35:07;14.47;;;8.17;;
48635;SDS011;34429;52.332;5.614;2022-11-11T15:38:03;15.02;;;8.40;;